Time;durP1;ratioP1;P1;durP2;ratioP2;P2;SDS_P1;SDS_P2;PMS_P1;PMS_P2;Temp;Humidity;BMP_temperature;BMP_pressure;BME280_temperature;BME280_humidity;BME280_pressure;Samples;Min_cycle;Max_cycle;Signal;HPM_P1;HPM_P2
2020/12/09 00:00:54;;;;;;;;;;;;;;;-8.11;76.71;102361.03;1867395;77;20667;-37
2020/12/09 00:03:21;;;;;;;;;;;;;;;-8.12;76.77;102374.12;1867572;77;20135;-37
2020/12/09 00:05:49;;;;;;;;;;;;;;;-8.14;76.83;102368.42;1867374;77;20454;-36
2020/12/09 00:08:17;;;;;;;;;;;;;;;-8.15;76.92;102374.27;1867546;77;20128;-35
2020/12/09 00:10:44;;;;;;;;;;;;;;;-8.17;76.97;102369.42;1867667;77;20160;-36
2020/12/09 00:13:12;;;;;;;;;;;;;;;-8.18;77.05;102382.89;1867585;77;20390;-36
2020/12/09 00:15:40;;;;;;;;;;;;;;;-8.21;77.08;102375.02;1867461;77;20406;-36
2020/12/09 00:18:08;;;;;;;;;;;;;;;-8.25;77.14;102371.69;1867577;77;20136;-35
2020/12/09 00:20:35;;;;;;;;;;;;;;;-8.27;77.27;102374.09;1867297;76;20136;-36
2020/12/09 00:23:03;;;;;;;;;;;;;;;-8.29;77.35;102369.66;1867345;77;20171;-35
2020/12/09 00:25:30;;;;;;;;;;;;;;;-8.29;77.46;102364.57;1867251;77;20156;-36
2020/12/09 00:27:58;;;;;;;;;;;;;;;-8.29;77.56;102370.55;1867495;77;20291;-35
2020/12/09 00:30:26;;;;;;;;;;;;;;;-8.31;77.54;102373.37;1867211;77;20140;-34
2020/12/09 00:32:54;;;;;;;;;;;;;;;-8.33;77.64;102377.80;1867558;77;20433;-36
2020/12/09 00:35:22;;;;;;;;;;;;;;;-8.35;77.70;102377.70;1867388;77;20395;-36
2020/12/09 00:37:50;;;;;;;;;;;;;;;-8.36;77.82;102368.66;1867521;77;20152;-43
2020/12/09 00:40:17;;;;;;;;;;;;;;;-8.35;77.88;102382.78;1867308;77;20259;-35
2020/12/09 00:42:45;;;;;;;;;;;;;;;-8.37;77.90;102383.40;1867472;77;20128;-35
2020/12/09 00:45:13;;;;;;;;;;;;;;;-8.39;77.98;102398.52;1867283;77;20156;-36
2020/12/09 00:47:41;;;;;;;;;;;;;;;-8.40;78.09;102395.45;1867269;77;20132;-35
2020/12/09 00:52:43;;;;;;;;;;;;;;;-8.39;78.27;102406.14;1867486;76;20267;-35
2020/12/09 00:55:13;;;;;;;;;;;;;;;-8.35;78.36;102407.31;1867222;77;20133;-37
2020/12/09 00:57:43;;;;;;;;;;;;;;;-8.30;78.40;102406.05;1867414;77;20235;-37
2020/12/09 01:00:13;;;;;;;;;;;;;;;-8.26;78.44;102401.31;1867222;77;20136;-36
2020/12/09 01:02:44;;;;;;;;;;;;;;;-8.21;78.44;102387.74;1867305;77;20184;-38
2020/12/09 01:05:13;;;;;;;;;;;;;;;-8.17;78.45;102391.94;1867253;77;20125;-36
2020/12/09 01:07:41;;;;;;;;;;;;;;;-8.14;78.41;102391.32;1867499;76;20156;-36
2020/12/09 01:10:09;;;;;;;;;;;;;;;-8.12;78.37;102385.95;1867120;77;20264;-34
2020/12/09 01:12:40;;;;;;;;;;;;;;;-8.10;78.39;102388.27;1867227;76;20131;-36
2020/12/09 01:15:10;;;;;;;;;;;;;;;-8.09;78.37;102383.69;1867174;77;20322;-37
2020/12/09 01:17:38;;;;;;;;;;;;;;;-8.11;78.38;102389.02;1867468;77;20374;-35
2020/12/09 01:20:06;;;;;;;;;;;;;;;-8.11;78.43;102374.64;1867296;77;20271;-36
2020/12/09 01:22:34;;;;;;;;;;;;;;;-8.08;78.51;102384.20;1867206;77;20191;-37
2020/12/09 01:25:03;;;;;;;;;;;;;;;-8.03;78.55;102377.84;1867383;77;20242;-36
2020/12/09 01:27:31;;;;;;;;;;;;;;;-7.98;78.58;102379.11;1867293;76;20156;-37
2020/12/09 01:29:59;;;;;;;;;;;;;;;-7.94;78.58;102373.92;1867231;76;20180;-36
2020/12/09 01:32:27;;;;;;;;;;;;;;;-7.93;78.53;102366.38;1867323;76;20121;-36
2020/12/09 01:34:54;;;;;;;;;;;;;;;-7.93;78.46;102382.03;1867150;77;20192;-36
2020/12/09 01:37:23;;;;;;;;;;;;;;;-7.97;78.43;102373.27;1867197;77;20132;-45
2020/12/09 01:39:51;;;;;;;;;;;;;;;-8.02;78.41;102371.10;1867249;77;20199;-37
2020/12/09 01:42:19;;;;;;;;;;;;;;;-8.09;78.43;102370.97;1867327;77;20517;-36
2020/12/09 01:44:47;;;;;;;;;;;;;;;-8.15;78.49;102371.72;1867267;77;20231;-37
2020/12/09 01:47:16;;;;;;;;;;;;;;;-8.20;78.54;102376.77;1867395;77;20230;-37
2020/12/09 01:49:44;;;;;;;;;;;;;;;-8.24;78.61;102382.00;1867518;77;20446;-36
2020/12/09 01:52:12;;;;;;;;;;;;;;;-8.29;78.71;102383.64;1867253;76;20120;-35
2020/12/09 01:54:39;;;;;;;;;;;;;;;-8.35;78.84;102385.33;1867494;77;20161;-35
2020/12/09 01:57:12;;;;;;;;;;;;;;;-8.37;78.94;102397.01;1867288;77;20129;-36
2020/12/09 01:59:41;;;;;;;;;;;;;;;-8.40;79.05;102399.69;1867060;77;20133;-35
2020/12/09 02:02:09;;;;;;;;;;;;;;;-8.46;79.12;102395.83;1867229;75;20291;-37
2020/12/09 02:04:37;;;;;;;;;;;;;;;-8.51;79.20;102390.73;1867125;77;20120;-36
2020/12/09 02:07:05;;;;;;;;;;;;;;;-8.54;79.30;102397.22;1867199;77;20255;-35
2020/12/09 02:09:33;;;;;;;;;;;;;;;-8.58;79.41;102397.31;1867257;77;20144;-36
2020/12/09 02:12:01;;;;;;;;;;;;;;;-8.58;79.48;102401.50;1867352;76;20450;-36
2020/12/09 02:14:30;;;;;;;;;;;;;;;-8.59;79.55;102406.07;1867163;77;20418;-37
2020/12/09 02:16:58;;;;;;;;;;;;;;;-8.58;79.60;102404.05;1867170;76;20219;-36
2020/12/09 02:19:27;;;;;;;;;;;;;;;-8.57;79.62;102399.11;1867379;76;20132;-35
2020/12/09 02:21:55;;;;;;;;;;;;;;;-8.55;79.64;102402.68;1867332;77;20124;-36
2020/12/09 02:26:50;;;;;;;;;;;;;;;-8.47;79.55;102399.53;1925734;74;20193;-40
2020/12/09 02:29:20;;;;;;;;;;;;;;;-8.56;79.44;102399.63;1872756;75;20152;-35
2020/12/09 02:31:48;;;;;;;;;;;;;;;-8.61;79.44;102398.72;1901609;75;20132;-35
2020/12/09 02:34:16;;;;;;;;;;;;;;;-8.68;79.45;102387.50;1902990;75;20239;-35
2020/12/09 02:36:45;;;;;;;;;;;;;;;-8.73;79.48;102397.66;1903020;75;20258;-36
2020/12/09 02:39:12;;;;;;;;;;;;;;;-8.78;79.54;102394.69;1903302;75;20136;-35
2020/12/09 02:41:40;;;;;;;;;;;;;;;-8.81;79.58;102399.52;1903165;75;20133;-37
2020/12/09 02:44:08;;;;;;;;;;;;;;;-8.84;79.62;102398.34;1902937;75;20140;-37
2020/12/09 02:46:36;;;;;;;;;;;;;;;-8.89;79.67;102401.77;1903366;75;20214;-37
2020/12/09 02:49:03;;;;;;;;;;;;;;;-8.92;79.75;102393.85;1903072;75;20140;-37
2020/12/09 02:51:31;;;;;;;;;;;;;;;-8.94;79.82;102396.28;1903157;75;20211;-36
2020/12/09 02:53:59;;;;;;;;;;;;;;;-8.94;79.88;102397.94;1903275;75;20160;-36
2020/12/09 02:56:26;;;;;;;;;;;;;;;-8.94;79.96;102394.12;1903161;75;20397;-36
2020/12/09 02:58:54;;;;;;;;;;;;;;;-8.93;79.96;102390.83;1903067;75;20184;-41
2020/12/09 03:01:23;;;;;;;;;;;;;;;-8.93;79.99;102394.27;1903006;75;20132;-36
2020/12/09 03:03:50;;;;;;;;;;;;;;;-8.93;79.95;102394.27;1903058;75;20191;-36
2020/12/09 03:06:18;;;;;;;;;;;;;;;-8.93;79.96;102392.99;1902979;75;20163;-37
2020/12/09 03:08:48;;;;;;;;;;;;;;;-8.92;79.89;102394.75;1873699;75;20502;-37
2020/12/09 03:11:16;;;;;;;;;;;;;;;-8.92;79.84;102390.94;1867989;76;20419;-37
2020/12/09 03:13:44;;;;;;;;;;;;;;;-8.93;79.80;102386.64;1868048;77;20185;-36
2020/12/09 03:16:12;;;;;;;;;;;;;;;-8.93;79.77;102374.31;1867947;77;20134;-36
2020/12/09 03:18:40;;;;;;;;;;;;;;;-8.91;79.71;102385.48;1868001;77;20146;-37
2020/12/09 03:21:07;;;;;;;;;;;;;;;-8.89;79.58;102391.59;1867948;77;20123;-36
2020/12/09 03:23:36;;;;;;;;;;;;;;;-8.92;79.50;102393.48;1867966;77;20126;-34
2020/12/09 03:26:04;;;;;;;;;;;;;;;-8.91;79.42;102389.29;1867953;77;20608;-37
2020/12/09 03:28:37;;;;;;;;;;;;;;;-8.92;79.34;102392.58;1868470;77;20142;-36
2020/12/09 03:31:06;;;;;;;;;;;;;;;-8.91;79.25;102389.29;1868036;77;20130;-35
2020/12/09 03:33:34;;;;;;;;;;;;;;;-8.91;79.14;102391.83;1868160;77;20518;-36
2020/12/09 03:36:02;;;;;;;;;;;;;;;-8.90;79.05;102389.81;1867758;77;20240;-36
2020/12/09 03:38:30;;;;;;;;;;;;;;;-8.89;78.96;102400.11;1867411;77;20130;-36
2020/12/09 03:40:58;;;;;;;;;;;;;;;-8.90;78.83;102374.19;1867241;77;20149;-36
2020/12/09 03:43:26;;;;;;;;;;;;;;;-8.88;78.72;102387.93;1867315;77;20158;-35
2020/12/09 03:45:53;;;;;;;;;;;;;;;-8.88;78.65;102388.30;1867438;77;20161;-34
2020/12/09 03:48:21;;;;;;;;;;;;;;;-8.90;78.57;102391.97;1867534;77;20186;-35
2020/12/09 03:50:49;;;;;;;;;;;;;;;-8.90;78.50;102388.54;1867528;77;20178;-36
2020/12/09 03:53:17;;;;;;;;;;;;;;;-8.90;78.45;102393.24;1867199;77;20202;-36
2020/12/09 03:55:45;;;;;;;;;;;;;;;-8.92;78.38;102387.13;1867331;77;20177;-41
2020/12/09 03:58:13;;;;;;;;;;;;;;;-8.92;78.32;102392.58;1867323;77;20174;-36
2020/12/09 04:00:41;;;;;;;;;;;;;;;-8.93;78.25;102379.39;1867512;77;20150;-35
2020/12/09 04:03:09;;;;;;;;;;;;;;;-8.93;78.21;102385.38;1867552;77;20178;-36
2020/12/09 04:05:37;;;;;;;;;;;;;;;-8.93;78.16;102394.64;1867415;77;20244;-35
2020/12/09 04:08:04;;;;;;;;;;;;;;;-8.95;78.10;102394.50;1867540;77;20150;-36
2020/12/09 04:10:32;;;;;;;;;;;;;;;-8.97;78.09;102390.02;1873965;75;20231;-37
2020/12/09 04:13:00;;;;;;;;;;;;;;;-8.96;78.07;102390.55;1871867;75;20300;-36
2020/12/09 04:15:27;;;;;;;;;;;;;;;-8.97;78.04;102387.48;1868706;75;20142;-36
2020/12/09 04:17:55;;;;;;;;;;;;;;;-8.98;78.06;102383.16;1899751;75;20136;-36
2020/12/09 04:20:23;;;;;;;;;;;;;;;-8.98;78.04;102379.34;1899885;75;20141;-35
2020/12/09 04:22:50;;;;;;;;;;;;;;;-8.98;78.02;102385.70;1899857;75;20393;-37
2020/12/09 04:25:19;;;;;;;;;;;;;;;-8.99;77.97;102378.45;1899791;75;20192;-35
2020/12/09 04:27:47;;;;;;;;;;;;;;;-8.99;77.92;102378.45;1900069;75;20236;-35
2020/12/09 04:30:15;;;;;;;;;;;;;;;-9.00;77.90;102375.80;1899965;75;20180;-35
2020/12/09 04:32:43;;;;;;;;;;;;;;;-9.02;77.87;102388.36;1888253;75;20173;-35
2020/12/09 04:35:10;;;;;;;;;;;;;;;-9.04;77.86;102375.89;1876536;75;20386;-37
2020/12/09 04:37:39;;;;;;;;;;;;;;;-9.05;77.85;102377.91;1902576;75;20160;-36
2020/12/09 04:40:07;;;;;;;;;;;;;;;-9.05;77.84;102379.56;1872124;75;20161;-36
2020/12/09 04:42:34;;;;;;;;;;;;;;;-9.05;77.80;102374.10;1867480;77;20170;-36
2020/12/09 04:45:02;;;;;;;;;;;;;;;-9.06;77.80;102377.80;1867445;77;20530;-37
2020/12/09 04:47:39;;;;;;;;;;;;;;;-9.08;77.80;102373.85;1867393;77;20134;-36
2020/12/09 04:50:11;;;;;;;;;;;;;;;-9.09;77.79;102375.87;1869100;75;20376;-37
2020/12/09 04:52:46;;;;;;;;;;;;;;;-9.09;77.79;102378.78;1867226;77;20174;-36
2020/12/09 04:55:16;;;;;;;;;;;;;;;-9.09;77.81;102377.52;1867139;77;20182;-36
2020/12/09 04:58:04;;;;;;;;;;;;;;;-9.10;77.77;102380.81;1867260;77;20202;-35
2020/12/09 05:00:32;;;;;;;;;;;;;;;-9.12;77.78;102385.75;1867136;77;20423;-37
2020/12/09 05:03:14;;;;;;;;;;;;;;;-9.11;77.78;102379.91;1867125;77;20132;-36
2020/12/09 05:05:42;;;;;;;;;;;;;;;-9.12;77.76;102387.42;1863443;75;20136;-34
2020/12/09 05:08:21;;;;;;;;;;;;;;;-9.12;77.76;102390.83;1867348;76;20221;-36
2020/12/09 05:10:50;;;;;;;;;;;;;;;-9.12;77.77;102378.53;1866920;77;20174;-36
2020/12/09 05:13:23;;;;;;;;;;;;;;;-9.12;77.75;102381.94;1868857;75;20182;-36
2020/12/09 05:15:54;;;;;;;;;;;;;;;-9.12;77.75;102383.62;1869992;75;20136;-35
2020/12/09 05:18:37;;;;;;;;;;;;;;;-9.12;77.72;102395.05;1895986;75;20176;-38
2020/12/09 05:21:12;;;;;;;;;;;;;;;-9.13;77.68;102397.06;1866994;77;20119;-36
2020/12/09 05:23:45;;;;;;;;;;;;;;;-9.14;77.66;102403.79;1868798;75;20140;-36
2020/12/09 05:26:20;;;;;;;;;;;;;;;-9.14;77.66;102401.62;1870321;75;20185;-36
2020/12/09 05:28:48;;;;;;;;;;;;;;;-9.14;77.65;102405.06;1868280;75;20122;-37
2020/12/09 05:31:20;;;;;;;;;;;;;;;-9.13;77.60;102404.31;1868108;75;20220;-38
2020/12/09 05:33:48;;;;;;;;;;;;;;;-9.11;77.56;102406.58;1869346;75;20172;-37
2020/12/09 05:36:16;;;;;;;;;;;;;;;-9.08;77.50;102411.95;1871334;75;20269;-41
2020/12/09 05:38:45;;;;;;;;;;;;;;;-9.06;77.39;102411.72;1875695;75;20174;-38
2020/12/09 05:41:13;;;;;;;;;;;;;;;-9.02;77.30;102410.33;1860319;75;20188;-37
2020/12/09 05:43:44;;;;;;;;;;;;;;;-9.01;77.18;102413.02;1878220;75;20484;-38
2020/12/09 05:46:12;;;;;;;;;;;;;;;-8.99;77.03;102419.09;1872997;75;20544;-38
2020/12/09 05:48:40;;;;;;;;;;;;;;;-8.97;76.94;102416.33;1873038;75;20182;-38
2020/12/09 05:51:09;;;;;;;;;;;;;;;-8.96;76.82;102405.78;1873005;75;20205;-38
2020/12/09 05:53:37;;;;;;;;;;;;;;;-8.95;76.74;102413.93;1870818;75;20246;-39
2020/12/09 05:56:16;;;;;;;;;;;;;;;-8.94;76.62;102408.09;1866845;75;20337;-39
2020/12/09 05:58:46;;;;;;;;;;;;;;;-8.92;76.52;102417.61;1869524;75;20188;-39
2020/12/09 06:01:22;;;;;;;;;;;;;;;-8.91;76.40;102424.48;1874464;75;20192;-40
2020/12/09 06:03:55;;;;;;;;;;;;;;;-8.89;76.33;102424.25;1870181;75;20166;-38
2020/12/09 06:06:27;;;;;;;;;;;;;;;-8.88;76.23;102408.26;1871298;75;20191;-42
2020/12/09 06:09:01;;;;;;;;;;;;;;;-8.84;76.04;102421.21;1872342;75;20245;-42
2020/12/09 06:11:32;;;;;;;;;;;;;;;-8.82;75.95;102429.50;1852649;75;20182;-42
2020/12/09 06:14:08;;;;;;;;;;;;;;;-8.79;75.75;102410.69;1826958;75;20123;-41
2020/12/09 06:16:38;;;;;;;;;;;;;;;-8.75;75.61;102424.20;1874830;75;20387;-42
2020/12/09 06:19:07;;;;;;;;;;;;;;;-8.73;75.46;102429.05;1848322;77;20176;-42
2020/12/09 06:21:42;;;;;;;;;;;;;;;-8.68;75.31;102435.80;1847823;77;20436;-39
2020/12/09 06:26:50;;;;;;;;;;;;;;;-8.57;75.04;102428.72;1896882;74;20235;-41
2020/12/09 06:29:23;;;;;;;;;;;;;;;-8.58;74.87;102438.37;1870442;75;20178;-44
2020/12/09 06:32:00;;;;;;;;;;;;;;;-8.55;74.68;102429.75;1869972;75;20482;-41
2020/12/09 06:34:29;;;;;;;;;;;;;;;-8.50;74.50;102447.56;1867497;75;20152;-41
2020/12/09 06:37:12;;;;;;;;;;;;;;;-8.48;74.33;102435.51;1872427;75;20178;-42
2020/12/09 06:39:40;;;;;;;;;;;;;;;-8.42;74.20;102442.77;1872127;75;20147;-42
2020/12/09 06:42:08;;;;;;;;;;;;;;;-8.39;74.05;102440.48;1869580;75;20192;-40
2020/12/09 06:44:48;;;;;;;;;;;;;;;-8.36;73.89;102440.76;1870474;75;20382;-43
2020/12/09 06:47:17;;;;;;;;;;;;;;;-8.29;73.76;102449.77;1869193;75;20182;-42
2020/12/09 06:49:45;;;;;;;;;;;;;;;-8.25;73.61;102455.25;1871334;75;20198;-41
2020/12/09 06:52:16;;;;;;;;;;;;;;;-8.19;73.47;102451.06;1870857;75;20450;-42
2020/12/09 06:54:45;;;;;;;;;;;;;;;-8.13;73.27;102460.49;1870655;75;20430;-43
2020/12/09 06:57:20;;;;;;;;;;;;;;;-8.09;73.09;102454.55;1871706;75;20190;-42
2020/12/09 06:59:49;;;;;;;;;;;;;;;-8.02;72.95;102448.33;1869554;75;20150;-42
2020/12/09 07:02:27;;;;;;;;;;;;;;;-7.93;72.81;102444.38;1872468;75;20164;-42
2020/12/09 07:04:59;;;;;;;;;;;;;;;-7.82;72.64;102438.19;1871007;75;20208;-42
2020/12/09 07:07:31;;;;;;;;;;;;;;;-7.72;72.16;102442.00;1868807;75;20284;-43
2020/12/09 07:10:00;;;;;;;;;;;;;;;-7.63;71.84;102437.19;1867283;75;20186;-42
2020/12/09 07:12:28;;;;;;;;;;;;;;;-7.51;71.49;102435.66;1871527;75;20300;-42
2020/12/09 07:14:58;;;;;;;;;;;;;;;-7.32;71.15;102440.23;1874535;75;20173;-43
2020/12/09 07:17:27;;;;;;;;;;;;;;;-7.18;70.61;102437.16;1869808;75;20295;-42
2020/12/09 07:19:59;;;;;;;;;;;;;;;-7.04;70.16;102432.81;1873244;75;20278;-42
2020/12/09 07:22:27;;;;;;;;;;;;;;;-6.84;69.62;102435.70;1871887;75;20214;-46
2020/12/09 07:24:55;;;;;;;;;;;;;;;-6.69;68.92;102430.91;1871931;75;20214;-41
2020/12/09 07:27:29;;;;;;;;;;;;;;;-6.55;68.43;102431.63;1873712;75;20174;-42
2020/12/09 07:30:00;;;;;;;;;;;;;;;-6.36;67.73;102425.93;1874494;75;20179;-41
2020/12/09 07:32:24;;;;;;;;;;;;;;;-6.16;67.20;102428.38;1871118;75;20227;-43
2020/12/09 07:34:59;;;;;;;;;;;;;;;-5.90;66.44;102420.56;1871183;75;20134;-43
2020/12/09 07:37:30;;;;;;;;;;;;;;;-5.75;65.29;102400.89;1874112;75;20163;-43
2020/12/09 07:40:02;;;;;;;;;;;;;;;-5.61;64.34;102412.16;1870333;75;20434;-43
2020/12/09 07:42:28;;;;;;;;;;;;;;;-5.46;63.66;102410.77;1866974;75;20170;-43
2020/12/09 07:44:56;;;;;;;;;;;;;;;-5.18;63.10;102413.67;1838410;75;20381;-43
2020/12/09 07:47:29;;;;;;;;;;;;;;;-4.96;62.27;102419.59;1871693;75;20232;-43
2020/12/09 07:50:05;;;;;;;;;;;;;;;-4.82;61.35;102415.48;1870985;75;20210;-42
2020/12/09 07:52:36;;;;;;;;;;;;;;;-4.75;60.84;102420.27;1874000;75;20297;-41
2020/12/09 07:55:07;;;;;;;;;;;;;;;-4.56;60.17;102419.91;1868879;75;20164;-42
2020/12/09 07:57:37;;;;;;;;;;;;;;;-4.52;59.77;102402.70;1875239;75;20200;-41
2020/12/09 08:00:09;;;;;;;;;;;;;;;-4.42;59.13;102408.99;1869086;75;20195;-44
2020/12/09 08:02:41;;;;;;;;;;;;;;;-4.42;58.58;102392.36;1867586;75;20217;-43
2020/12/09 08:05:11;;;;;;;;;;;;;;;-4.43;58.44;102400.81;1867002;75;20289;-43
2020/12/09 08:07:59;;;;;;;;;;;;;;;-4.28;58.22;102413.81;1866514;75;20269;-42
2020/12/09 08:10:30;;;;;;;;;;;;;;;-4.13;57.94;102404.22;1869810;75;20228;-42
2020/12/09 08:13:24;;;;;;;;;;;;;;;-3.93;57.52;102394.46;1871367;75;20194;-43
2020/12/09 08:16:06;;;;;;;;;;;;;;;-3.87;57.02;102401.32;1870183;75;20392;-43
2020/12/09 08:18:34;;;;;;;;;;;;;;;-3.76;56.98;102406.38;1869375;75;20186;-42
2020/12/09 08:21:02;;;;;;;;;;;;;;;-3.68;56.26;102403.95;1869579;75;20193;-42
2020/12/09 08:23:43;;;;;;;;;;;;;;;-3.67;56.10;102392.89;1871587;75;20561;-41
2020/12/09 08:26:11;;;;;;;;;;;;;;;-3.64;55.89;102393.50;1841025;75;20274;-42
2020/12/09 08:28:47;;;;;;;;;;;;;;;-3.67;55.85;102389.05;1876659;75;20368;-41
2020/12/09 08:31:16;;;;;;;;;;;;;;;-3.63;55.81;102379.91;1876980;75;20216;-42
2020/12/09 08:33:44;;;;;;;;;;;;;;;-3.54;55.72;102384.77;1870334;75;20476;-42
2020/12/09 08:36:16;;;;;;;;;;;;;;;-3.45;55.65;102384.08;1876613;75;20266;-42
2020/12/09 08:38:52;;;;;;;;;;;;;;;-3.44;55.21;102376.89;1871087;75;20562;-42
2020/12/09 08:41:29;;;;;;;;;;;;;;;-3.55;55.13;102377.86;1843734;75;20195;-42
2020/12/09 08:43:58;;;;;;;;;;;;;;;-3.68;55.12;102376.16;1870199;75;20252;-43
2020/12/09 08:46:27;;;;;;;;;;;;;;;-3.83;55.42;102386.25;1870718;75;20166;-42
2020/12/09 08:48:54;;;;;;;;;;;;;;;-3.85;55.80;102373.72;1870750;75;20174;-42
2020/12/09 08:51:25;;;;;;;;;;;;;;;-3.78;55.92;102372.07;1870156;75;20291;-43
2020/12/09 08:53:58;;;;;;;;;;;;;;;-3.74;55.81;102371.91;1837250;77;20247;-42
2020/12/09 08:56:28;;;;;;;;;;;;;;;-3.72;55.89;102376.33;1868794;75;20205;-42
2020/12/09 08:58:55;;;;;;;;;;;;;;;-3.68;55.89;102369.36;1875744;75;20366;-38
2020/12/09 09:01:24;;;;;;;;;;;;;;;-3.63;55.80;102370.55;1867711;75;20225;-42
2020/12/09 09:03:56;;;;;;;;;;;;;;;-3.52;55.79;102378.94;1877756;75;20442;-42
2020/12/09 09:06:22;;;;;;;;;;;;;;;-3.37;55.61;102368.43;1868919;75;20201;-39
2020/12/09 09:08:51;;;;;;;;;;;;;;;-3.23;55.12;102358.69;1873839;75;20306;-41
2020/12/09 09:11:23;;;;;;;;;;;;;;;-3.18;54.85;102370.91;1871849;75;20188;-43
2020/12/09 09:13:53;;;;;;;;;;;;;;;-3.15;54.97;102365.57;1870316;75;20249;-42
2020/12/09 09:16:22;;;;;;;;;;;;;;;-3.07;54.87;102359.66;1868151;75;20203;-42
2020/12/09 09:18:50;;;;;;;;;;;;;;;-3.00;54.88;102374.66;1869308;75;20277;-42
2020/12/09 09:21:19;;;;;;;;;;;;;;;-2.91;54.89;102363.33;1866320;75;20223;-42
2020/12/09 09:23:48;;;;;;;;;;;;;;;-2.83;54.62;102366.39;1870146;75;20266;-40
2020/12/09 09:26:18;;;;;;;;;;;;;;;-2.77;54.53;102351.38;1867267;75;20138;-43
2020/12/09 09:28:45;;;;;;;;;;;;;;;-2.65;54.32;102355.11;1869538;75;20272;-39
2020/12/09 09:31:13;;;;;;;;;;;;;;;-2.58;53.83;102348.28;1869540;75;20221;-39
2020/12/09 09:33:41;;;;;;;;;;;;;;;-2.59;53.71;102338.80;1872629;75;20189;-38
2020/12/09 09:36:09;;;;;;;;;;;;;;;-2.55;53.43;102348.06;1866437;75;20202;-41
2020/12/09 09:38:38;;;;;;;;;;;;;;;-2.47;53.13;102338.27;1868915;75;20380;-38
2020/12/09 09:41:05;;;;;;;;;;;;;;;-2.41;53.03;102336.09;1879886;75;20126;-38
2020/12/09 09:43:33;;;;;;;;;;;;;;;-2.42;52.73;102327.48;1872310;75;20268;-39
2020/12/09 09:46:02;;;;;;;;;;;;;;;-2.41;52.75;102317.72;1867470;75;20225;-40
2020/12/09 09:48:31;;;;;;;;;;;;;;;-2.34;52.53;102334.39;1818773;75;20193;-40
2020/12/09 09:50:59;;;;;;;;;;;;;;;-2.29;52.61;102332.09;1862738;75;20195;-39
2020/12/09 09:53:29;;;;;;;;;;;;;;;-2.25;52.60;102337.92;1867765;75;20259;-39
2020/12/09 09:55:58;;;;;;;;;;;;;;;-2.17;52.43;102331.58;1856024;75;20281;-39
2020/12/09 09:58:27;;;;;;;;;;;;;;;-2.09;52.24;102322.23;1873528;75;20274;-40
2020/12/09 10:00:55;;;;;;;;;;;;;;;-2.04;52.11;102327.67;1871032;75;20130;-39
2020/12/09 10:03:25;;;;;;;;;;;;;;;-1.98;52.05;102325.86;1873920;75;20213;-39
2020/12/09 10:05:53;;;;;;;;;;;;;;;-1.91;52.01;102319.90;1824556;75;20199;-39
2020/12/09 10:08:29;;;;;;;;;;;;;;;-1.78;51.79;102317.26;1800769;75;20195;-40
2020/12/09 10:14:44;;;;;;;;;;;;;;;-1.67;51.14;102317.48;1845685;75;20199;-39
2020/12/09 10:17:31;;;;;;;;;;;;;;;-1.63;50.94;102319.81;1838794;75;20208;-40
2020/12/09 10:20:30;;;;;;;;;;;;;;;-1.58;50.88;102316.25;1830705;75;20213;-39
2020/12/09 10:26:53;;;;;;;;;;;;;;;-1.24;50.29;102310.92;1894519;74;20675;-38
2020/12/09 10:29:21;;;;;;;;;;;;;;;-1.15;50.38;102307.59;1872460;75;20181;-39
2020/12/09 10:31:49;;;;;;;;;;;;;;;-0.95;50.32;102304.84;1881617;75;20132;-40
2020/12/09 10:34:19;;;;;;;;;;;;;;;-0.85;50.13;102304.14;1880130;75;20205;-36
2020/12/09 10:36:49;;;;;;;;;;;;;;;-0.79;49.86;102297.58;1878814;75;20143;-39
2020/12/09 10:39:22;;;;;;;;;;;;;;;-0.81;49.65;102288.08;1882224;75;20197;-39
2020/12/09 10:41:52;;;;;;;;;;;;;;;-0.83;49.43;102274.23;1887542;75;20276;-38
2020/12/09 10:44:20;;;;;;;;;;;;;;;-0.88;49.37;102278.64;1884264;75;20492;-40
2020/12/09 10:46:48;;;;;;;;;;;;;;;-0.93;49.52;102274.94;1878682;75;20177;-39
2020/12/09 10:49:16;;;;;;;;;;;;;;;-0.92;49.73;102276.28;1882052;75;20442;-38
2020/12/09 10:51:48;;;;;;;;;;;;;;;-0.84;49.81;102271.16;1883648;75;20187;-39
2020/12/09 10:54:16;;;;;;;;;;;;;;;-0.83;49.79;102262.64;1879670;75;20145;-40
2020/12/09 10:56:44;;;;;;;;;;;;;;;-0.70;49.93;102257.75;1841443;77;20293;-40
2020/12/09 10:59:15;;;;;;;;;;;;;;;-0.55;49.64;102258.58;1843459;77;20768;-40
2020/12/09 11:01:44;;;;;;;;;;;;;;;-0.49;49.44;102257.61;1829079;77;20661;-39
2020/12/09 11:04:13;;;;;;;;;;;;;;;-0.36;49.35;102255.27;1845988;77;20198;-39
2020/12/09 11:06:42;;;;;;;;;;;;;;;-0.27;49.18;102244.17;1848381;77;20190;-43
2020/12/09 11:09:10;;;;;;;;;;;;;;;-0.16;49.02;102243.42;1815140;79;20478;-39
2020/12/09 11:11:45;;;;;;;;;;;;;;;-0.14;48.83;102241.81;1830737;77;20206;-40
2020/12/09 11:14:10;;;;;;;;;;;;;;;-0.14;48.91;102250.84;1812108;78;20499;-40
2020/12/09 11:16:43;;;;;;;;;;;;;;;-0.13;48.72;102245.73;1813070;78;20214;-39
2020/12/09 11:19:15;;;;;;;;;;;;;;;-0.13;48.78;102225.11;1813379;78;20217;-39
2020/12/09 11:21:44;;;;;;;;;;;;;;;-0.06;48.54;102243.95;1806059;78;20210;-39
2020/12/09 11:24:12;;;;;;;;;;;;;;;0.05;48.54;102247.09;1820512;78;20188;-38
2020/12/09 11:26:40;;;;;;;;;;;;;;;0.13;48.32;102227.72;1820904;78;20247;-36
2020/12/09 11:29:08;;;;;;;;;;;;;;;0.16;48.13;102230.86;1816728;78;20414;-40
2020/12/09 11:31:38;;;;;;;;;;;;;;;0.13;48.02;102237.17;1816151;78;20133;-40
2020/12/09 11:34:06;;;;;;;;;;;;;;;0.11;47.93;102219.44;1817093;78;20247;-39
2020/12/09 11:36:34;;;;;;;;;;;;;;;0.15;47.81;102221.35;1815351;78;20196;-39
2020/12/09 11:39:03;;;;;;;;;;;;;;;0.16;47.75;102228.28;1816543;78;20285;-39
2020/12/09 11:41:34;;;;;;;;;;;;;;;0.15;47.81;102229.97;1813668;78;20303;-39
2020/12/09 11:44:02;;;;;;;;;;;;;;;0.14;47.79;102202.41;1789149;78;20212;-39
2020/12/09 11:46:33;;;;;;;;;;;;;;;0.11;47.51;102231.94;1814621;78;20200;-39
2020/12/09 11:49:05;;;;;;;;;;;;;;;0.11;47.64;102238.38;1764426;78;20233;-39
2020/12/09 11:51:38;;;;;;;;;;;;;;;0.13;47.59;102229.00;1737314;78;20204;-39
2020/12/09 11:54:13;;;;;;;;;;;;;;;0.22;47.30;102235.03;1748004;78;20225;-39
2020/12/09 11:56:47;;;;;;;;;;;;;;;0.29;47.07;102231.55;1753665;78;20176;-39
2020/12/09 11:59:23;;;;;;;;;;;;;;;0.31;47.07;102228.65;1815910;78;20177;-39
2020/12/09 12:01:57;;;;;;;;;;;;;;;0.29;47.02;102221.23;1736955;78;20281;-40
2020/12/09 12:04:29;;;;;;;;;;;;;;;0.17;47.15;102223.21;1823949;78;20198;-42
2020/12/09 12:07:01;;;;;;;;;;;;;;;0.09;47.38;102217.18;1762481;78;20192;-42
2020/12/09 12:09:30;;;;;;;;;;;;;;;0.03;47.56;102234.52;1768644;78;20195;-41
2020/12/09 12:11:58;;;;;;;;;;;;;;;-0.01;47.68;102230.92;1821761;78;20165;-40
2020/12/09 12:14:26;;;;;;;;;;;;;;;0.03;47.73;102234.92;1816300;78;20224;-42
2020/12/09 12:16:55;;;;;;;;;;;;;;;0.05;47.76;102239.77;1817005;78;20172;-43
2020/12/09 12:19:23;;;;;;;;;;;;;;;0.05;47.81;102242.34;1818817;78;20307;-42
2020/12/09 12:21:51;;;;;;;;;;;;;;;0.00;47.90;102246.84;1814262;78;20337;-42
2020/12/09 12:24:21;;;;;;;;;;;;;;;-0.07;47.74;102243.91;1814134;78;20268;-42
2020/12/09 12:26:50;;;;;;;;;;;;;;;-0.13;47.84;102243.16;1817881;78;20440;-42
2020/12/09 12:29:20;;;;;;;;;;;;;;;-0.17;47.87;102242.94;1819515;78;20184;-42
2020/12/09 12:31:54;;;;;;;;;;;;;;;-0.22;47.65;102234.98;1820205;78;20650;-42
2020/12/09 12:34:44;;;;;;;;;;;;;;;-0.26;47.61;102234.31;1724319;78;20200;-43
2020/12/09 12:37:13;;;;;;;;;;;;;;;-0.30;47.74;102238.84;1817885;78;20219;-42
2020/12/09 12:39:42;;;;;;;;;;;;;;;-0.34;47.93;102236.03;1821448;78;20192;-43
2020/12/09 12:42:10;;;;;;;;;;;;;;;-0.44;48.17;102229.11;1817481;78;20119;-42
2020/12/09 12:44:39;;;;;;;;;;;;;;;-0.49;48.42;102225.81;1818458;78;20271;-42
2020/12/09 12:47:08;;;;;;;;;;;;;;;-0.52;48.62;102228.21;1817117;78;20191;-41
2020/12/09 12:49:41;;;;;;;;;;;;;;;-0.57;48.81;102224.11;1791448;78;20204;-42
2020/12/09 12:52:19;;;;;;;;;;;;;;;-0.58;48.88;102224.91;1793199;78;20204;-43
2020/12/09 12:54:50;;;;;;;;;;;;;;;-0.55;48.85;102229.36;1770312;78;20208;-42
2020/12/09 12:57:18;;;;;;;;;;;;;;;-0.54;48.75;102233.30;1826740;78;20453;-42
2020/12/09 12:59:47;;;;;;;;;;;;;;;-0.55;48.62;102222.92;1823027;78;20192;-42
2020/12/09 13:02:15;;;;;;;;;;;;;;;-0.56;48.47;102217.28;1815546;78;20328;-42
2020/12/09 13:04:43;;;;;;;;;;;;;;;-0.58;48.47;102222.34;1814079;78;21192;-42
2020/12/09 13:07:11;;;;;;;;;;;;;;;-0.62;48.55;102223.00;1819352;78;20117;-42